Time;durP1;ratioP1;P1;durP2;ratioP2;P2;SDS_P1;SDS_P2;PMS_P1;PMS_P2;Temp;Humidity;BMP_temperature;BMP_pressure;BME280_temperature;BME280_humidity;BME280_pressure;Samples;Min_cycle;Max_cycle;Signal;HPM_P1;HPM_P2
2022/03/23 00:01:30;;;;;;;19.42;13.55;;;;;;;;;;5085117;28;20085;-61
2022/03/23 00:03:56;;;;;;;25.20;14.15;;;;;;;;;;5092018;28;20662;-60
2022/03/23 00:06:22;;;;;;;22.02;13.23;;;;;;;;;;5095833;28;20035;-61
2022/03/23 00:08:50;;;;;;;24.35;14.27;;;;;;;;;;5093062;27;20081;-60
2022/03/23 00:11:17;;;;;;;21.38;13.43;;;;;;;;;;5091023;28;20134;-60
2022/03/23 00:13:43;;;;;;;22.77;14.82;;;;;;;;;;5099834;28;20039;-61
2022/03/23 00:16:09;;;;;;;22.20;13.82;;;;;;;;;;5096721;28;20147;-60
2022/03/23 00:18:35;;;;;;;23.75;13.90;;;;;;;;;;5091240;28;20027;-61
2022/03/23 00:21:01;;;;;;;25.20;13.70;;;;;;;;;;5094338;28;20024;-60
2022/03/23 00:23:27;;;;;;;20.00;13.32;;;;;;;;;;5097366;28;20471;-60
2022/03/23 00:25:54;;;;;;;21.17;13.63;;;;;;;;;;5096826;28;20038;-60
2022/03/23 00:28:20;;;;;;;19.98;13.02;;;;;;;;;;5097666;28;20039;-60
2022/03/23 00:30:48;;;;;;;19.30;13.05;;;;;;;;;;5093891;28;20190;-60
2022/03/23 00:33:15;;;;;;;21.50;13.35;;;;;;;;;;5098633;28;20406;-60
2022/03/23 00:35:41;;;;;;;20.77;12.52;;;;;;;;;;5088405;28;20416;-60
2022/03/23 00:38:07;;;;;;;25.73;13.65;;;;;;;;;;5093178;28;20035;-61
2022/03/23 00:40:33;;;;;;;20.35;13.35;;;;;;;;;;5092398;28;20047;-60
2022/03/23 00:43:01;;;;;;;22.50;12.90;;;;;;;;;;5097586;28;20050;-60
2022/03/23 00:45:27;;;;;;;19.60;13.07;;;;;;;;;;5092751;28;20047;-60
2022/03/23 00:47:53;;;;;;;22.13;13.23;;;;;;;;;;5085940;28;20039;-60
2022/03/23 00:50:19;;;;;;;20.73;13.00;;;;;;;;;;5090409;28;20095;-60
2022/03/23 00:52:47;;;;;;;20.15;12.98;;;;;;;;;;5092262;28;20435;-61
2022/03/23 00:55:15;;;;;;;19.88;13.38;;;;;;;;;;5099235;28;20035;-60
2022/03/23 00:57:41;;;;;;;20.08;12.98;;;;;;;;;;5094882;28;20054;-60
2022/03/23 01:00:12;;;;;;;22.10;13.60;;;;;;;;;;5091978;28;20177;-60
2022/03/23 01:02:41;;;;;;;23.35;13.13;;;;;;;;;;5089203;28;20210;-60
2022/03/23 01:05:08;;;;;;;22.45;13.30;;;;;;;;;;5095914;28;20088;-60
2022/03/23 01:07:34;;;;;;;23.40;13.02;;;;;;;;;;5094079;28;20157;-59
2022/03/23 01:10:00;;;;;;;19.45;13.13;;;;;;;;;;5093538;28;20024;-60
2022/03/23 01:12:27;;;;;;;20.35;13.27;;;;;;;;;;5089472;28;20489;-60
2022/03/23 01:14:53;;;;;;;23.55;13.73;;;;;;;;;;5096202;28;20121;-60
2022/03/23 01:17:19;;;;;;;22.35;13.95;;;;;;;;;;5091200;28;20157;-60
2022/03/23 01:19:46;;;;;;;21.48;13.77;;;;;;;;;;5093772;28;20457;-60
2022/03/23 01:22:12;;;;;;;20.55;13.00;;;;;;;;;;5087192;28;20055;-60
2022/03/23 01:24:38;;;;;;;22.48;14.45;;;;;;;;;;5097100;28;20065;-60
2022/03/23 01:27:04;;;;;;;22.88;13.65;;;;;;;;;;5088133;28;20051;-60
2022/03/23 01:29:30;;;;;;;21.15;13.35;;;;;;;;;;5094776;28;20113;-61
2022/03/23 01:31:56;;;;;;;22.92;13.40;;;;;;;;;;5091364;28;20351;-59
2022/03/23 01:34:23;;;;;;;22.88;13.63;;;;;;;;;;5093818;28;20181;-60
2022/03/23 01:36:49;;;;;;;20.98;12.77;;;;;;;;;;5095813;28;20016;-60
2022/03/23 01:39:15;;;;;;;21.90;13.25;;;;;;;;;;5088432;28;20085;-59
2022/03/23 01:41:41;;;;;;;19.98;13.82;;;;;;;;;;5094727;28;20434;-60
2022/03/23 01:44:13;;;;;;;24.42;14.18;;;;;;;;;;5088871;28;20558;-58
2022/03/23 01:46:58;;;;;;;23.55;13.95;;;;;;;;;;5095413;28;20410;-60
2022/03/23 01:49:24;;;;;;;23.88;14.27;;;;;;;;;;5094615;28;20104;-60
2022/03/23 01:51:50;;;;;;;23.17;14.20;;;;;;;;;;5090390;28;20095;-60
2022/03/23 01:54:16;;;;;;;23.27;14.75;;;;;;;;;;5095321;28;20024;-61
2022/03/23 01:56:42;;;;;;;22.77;13.60;;;;;;;;;;5091657;28;20385;-59
2022/03/23 01:59:09;;;;;;;22.25;14.32;;;;;;;;;;5086283;28;20035;-61
2022/03/23 02:01:36;;;;;;;21.05;13.20;;;;;;;;;;5090279;28;20877;-60
2022/03/23 02:04:02;;;;;;;21.23;13.05;;;;;;;;;;5093911;28;20060;-60
2022/03/23 02:06:28;;;;;;;20.27;13.40;;;;;;;;;;5094789;28;20181;-60
2022/03/23 02:08:54;;;;;;;21.75;13.93;;;;;;;;;;5094224;28;20155;-60
2022/03/23 02:11:20;;;;;;;21.55;13.48;;;;;;;;;;5095871;28;20025;-60
2022/03/23 02:13:46;;;;;;;20.80;13.38;;;;;;;;;;5095140;28;20031;-60
2022/03/23 02:16:12;;;;;;;22.98;14.32;;;;;;;;;;5094931;28;20082;-61
2022/03/23 02:18:38;;;;;;;21.48;14.15;;;;;;;;;;5099751;28;20027;-59
2022/03/23 02:21:04;;;;;;;21.95;13.43;;;;;;;;;;5095555;28;20305;-60
2022/03/23 02:23:30;;;;;;;25.63;14.68;;;;;;;;;;5089205;28;20579;-60
2022/03/23 02:26:01;;;;;;;22.15;13.57;;;;;;;;;;5089066;28;20438;-60
2022/03/23 02:28:28;;;;;;;19.92;12.57;;;;;;;;;;5091607;28;20023;-60
2022/03/23 02:30:54;;;;;;;18.52;13.50;;;;;;;;;;5088574;28;20019;-59
2022/03/23 02:33:23;;;;;;;21.00;13.32;;;;;;;;;;5092046;28;20038;-60
2022/03/23 02:35:49;;;;;;;21.48;13.60;;;;;;;;;;5090274;28;20048;-60
2022/03/23 02:38:16;;;;;;;22.70;13.63;;;;;;;;;;5094471;28;20019;-60
2022/03/23 02:40:42;;;;;;;21.13;13.43;;;;;;;;;;5096525;28;20754;-59
2022/03/23 02:43:08;;;;;;;20.45;13.93;;;;;;;;;;5091729;28;20423;-58
2022/03/23 02:45:35;;;;;;;20.27;12.93;;;;;;;;;;5097233;28;20020;-60
2022/03/23 02:48:02;;;;;;;19.23;13.35;;;;;;;;;;5089804;28;20032;-60
2022/03/23 02:50:28;;;;;;;21.63;13.65;;;;;;;;;;5097745;28;20067;-61
2022/03/23 03:04:01;;;;;;;21.42;13.98;;;;;;;;;;5093805;28;20082;-58
2022/03/23 03:06:27;;;;;;;21.10;12.60;;;;;;;;;;5091409;28;20513;-60
2022/03/23 03:08:53;;;;;;;24.08;13.90;;;;;;;;;;5097846;28;20036;-60
2022/03/23 03:11:20;;;;;;;19.98;14.25;;;;;;;;;;5090862;28;20127;-60
2022/03/23 03:13:50;;;;;;;19.48;13.55;;;;;;;;;;5092899;28;20052;-59
2022/03/23 03:16:17;;;;;;;21.17;13.98;;;;;;;;;;5097219;28;20016;-60
2022/03/23 03:18:43;;;;;;;24.73;15.35;;;;;;;;;;5094151;28;20051;-60
2022/03/23 03:21:10;;;;;;;23.83;15.13;;;;;;;;;;5095193;28;20015;-60
2022/03/23 03:23:41;;;;;;;24.75;15.02;;;;;;;;;;5095003;28;20058;-60
2022/03/23 03:26:07;;;;;;;24.73;14.85;;;;;;;;;;5100141;27;20053;-60
2022/03/23 03:28:34;;;;;;;27.30;15.23;;;;;;;;;;5094525;28;20144;-59
2022/03/23 03:31:01;;;;;;;24.08;14.35;;;;;;;;;;5088653;28;20028;-59
2022/03/23 03:33:27;;;;;;;24.95;14.43;;;;;;;;;;5089081;28;20028;-59
2022/03/23 03:35:53;;;;;;;26.67;14.57;;;;;;;;;;5094129;28;20074;-58
2022/03/23 03:38:19;;;;;;;24.92;15.23;;;;;;;;;;5096115;28;20050;-60
2022/03/23 03:40:45;;;;;;;25.30;14.20;;;;;;;;;;5098471;28;20137;-59
2022/03/23 03:43:11;;;;;;;21.90;15.07;;;;;;;;;;5097556;28;20012;-60
2022/03/23 03:45:37;;;;;;;22.75;14.27;;;;;;;;;;5092193;28;20030;-61
2022/03/23 03:48:03;;;;;;;21.92;14.45;;;;;;;;;;5096780;28;20397;-59
2022/03/23 03:50:29;;;;;;;22.88;15.07;;;;;;;;;;5099879;28;20016;-60
2022/03/23 03:52:55;;;;;;;26.20;15.02;;;;;;;;;;5090698;28;20449;-60
2022/03/23 03:55:21;;;;;;;24.98;15.07;;;;;;;;;;5097707;28;20012;-60
2022/03/23 03:57:47;;;;;;;23.20;15.25;;;;;;;;;;5095522;28;20029;-58
2022/03/23 04:00:15;;;;;;;23.73;14.98;;;;;;;;;;5088997;28;20016;-59
2022/03/23 04:02:41;;;;;;;22.63;14.45;;;;;;;;;;5089831;28;20462;-60
2022/03/23 04:05:07;;;;;;;21.88;14.57;;;;;;;;;;5085626;28;20513;-60
2022/03/23 04:07:33;;;;;;;24.67;15.32;;;;;;;;;;5093345;28;20027;-59
2022/03/23 04:10:03;;;;;;;22.52;14.82;;;;;;;;;;5096415;28;20040;-60
2022/03/23 04:12:29;;;;;;;20.25;14.80;;;;;;;;;;5088004;28;20117;-60
2022/03/23 04:14:55;;;;;;;21.52;14.38;;;;;;;;;;5090107;28;20412;-60
2022/03/23 04:17:21;;;;;;;22.95;14.13;;;;;;;;;;5090920;28;20402;-60
2022/03/23 04:19:47;;;;;;;22.75;14.52;;;;;;;;;;5089818;28;20013;-60
2022/03/23 04:22:13;;;;;;;21.33;14.55;;;;;;;;;;5093034;28;20119;-59
2022/03/23 04:24:39;;;;;;;24.98;14.00;;;;;;;;;;5090437;28;20020;-60
2022/03/23 04:27:06;;;;;;;21.77;14.23;;;;;;;;;;5091006;28;20028;-58
2022/03/23 04:29:32;;;;;;;21.38;14.25;;;;;;;;;;5088382;28;20028;-60
2022/03/23 04:31:58;;;;;;;20.30;14.23;;;;;;;;;;5088801;27;20069;-60
2022/03/23 04:34:24;;;;;;;21.13;14.77;;;;;;;;;;5101547;28;20024;-60
2022/03/23 04:36:50;;;;;;;24.48;14.43;;;;;;;;;;5092403;28;20027;-60
2022/03/23 04:39:16;;;;;;;21.90;14.07;;;;;;;;;;5086308;28;20020;-60
2022/03/23 04:41:42;;;;;;;21.33;14.32;;;;;;;;;;5092156;28;20242;-60
2022/03/23 04:44:08;;;;;;;20.88;14.38;;;;;;;;;;5088948;28;20457;-58
2022/03/23 04:46:34;;;;;;;21.85;14.50;;;;;;;;;;5098167;28;20087;-59
2022/03/23 04:49:00;;;;;;;26.75;14.73;;;;;;;;;;5098441;28;20019;-60
2022/03/23 04:51:26;;;;;;;21.90;14.30;;;;;;;;;;5099865;28;20434;-60
2022/03/23 04:53:52;;;;;;;25.80;14.80;;;;;;;;;;5095443;28;20121;-60
2022/03/23 04:56:18;;;;;;;21.35;14.63;;;;;;;;;;5095446;28;20378;-60
2022/03/23 04:58:44;;;;;;;24.90;15.82;;;;;;;;;;5091607;28;20055;-61
2022/03/23 05:01:10;;;;;;;26.92;15.63;;;;;;;;;;5090643;28;20034;-60
2022/03/23 05:03:36;;;;;;;24.67;16.02;;;;;;;;;;5092286;28;20023;-61
2022/03/23 05:06:02;;;;;;;25.15;15.82;;;;;;;;;;5091829;28;20451;-60
2022/03/23 05:08:28;;;;;;;26.80;16.15;;;;;;;;;;5093510;28;20035;-60
2022/03/23 05:10:54;;;;;;;25.23;15.57;;;;;;;;;;5094796;28;20035;-59
2022/03/23 05:13:20;;;;;;;22.63;15.55;;;;;;;;;;5090525;28;20231;-60
2022/03/23 05:15:46;;;;;;;23.77;15.40;;;;;;;;;;5086948;28;20121;-60
2022/03/23 05:18:12;;;;;;;22.50;14.45;;;;;;;;;;5091119;28;20031;-59
2022/03/23 05:20:38;;;;;;;23.70;15.82;;;;;;;;;;5089505;28;20020;-60
2022/03/23 05:23:05;;;;;;;25.75;15.77;;;;;;;;;;5093495;28;20031;-58
2022/03/23 05:25:31;;;;;;;25.77;15.30;;;;;;;;;;5096294;27;20566;-60
2022/03/23 05:27:57;;;;;;;27.60;16.33;;;;;;;;;;5083937;28;20108;-59
2022/03/23 05:30:23;;;;;;;25.40;15.73;;;;;;;;;;5092131;28;20038;-60
2022/03/23 05:32:49;;;;;;;27.48;15.25;;;;;;;;;;5087792;28;20500;-61
2022/03/23 05:35:15;;;;;;;23.58;14.70;;;;;;;;;;5091501;28;20028;-57
2022/03/23 05:37:44;;;;;;;26.70;14.70;;;;;;;;;;5093377;28;20493;-58
2022/03/23 05:40:11;;;;;;;23.00;15.57;;;;;;;;;;5090740;28;20024;-59
2022/03/23 05:42:37;;;;;;;27.63;15.27;;;;;;;;;;5095255;28;20059;-59
2022/03/23 05:45:03;;;;;;;27.80;15.65;;;;;;;;;;5087099;28;20032;-60
2022/03/23 05:47:29;;;;;;;25.13;15.13;;;;;;;;;;5090354;28;20043;-59
2022/03/23 05:49:55;;;;;;;25.13;16.42;;;;;;;;;;5093230;28;20020;-60
2022/03/23 05:52:21;;;;;;;28.00;16.48;;;;;;;;;;5089909;28;20537;-60
2022/03/23 05:54:47;;;;;;;25.77;15.45;;;;;;;;;;5096393;28;20028;-60
2022/03/23 05:57:13;;;;;;;25.35;14.85;;;;;;;;;;5092218;28;20046;-60
2022/03/23 05:59:39;;;;;;;27.58;15.27;;;;;;;;;;5094654;28;20020;-60
2022/03/23 06:02:05;;;;;;;26.25;15.65;;;;;;;;;;5088412;28;20040;-58
2022/03/23 06:04:31;;;;;;;25.95;15.75;;;;;;;;;;5099342;28;20115;-55
2022/03/23 06:06:57;;;;;;;27.08;16.55;;;;;;;;;;5091089;28;20027;-56
2022/03/23 06:09:23;;;;;;;22.52;15.35;;;;;;;;;;5098170;28;20084;-55
2022/03/23 06:11:49;;;;;;;24.30;15.98;;;;;;;;;;5095077;28;20442;-55
2022/03/23 06:14:15;;;;;;;28.80;16.38;;;;;;;;;;5096003;28;20024;-56
2022/03/23 06:16:41;;;;;;;27.33;16.65;;;;;;;;;;5088292;28;20059;-53
2022/03/23 06:19:10;;;;;;;29.45;15.98;;;;;;;;;;5099276;28;20039;-55
2022/03/23 06:21:36;;;;;;;26.25;15.88;;;;;;;;;;5097216;28;20088;-55
2022/03/23 06:24:02;;;;;;;26.77;16.23;;;;;;;;;;5092511;28;20500;-54
2022/03/23 06:26:28;;;;;;;29.13;16.10;;;;;;;;;;5095675;28;20039;-55
2022/03/23 06:28:54;;;;;;;27.85;16.17;;;;;;;;;;5095207;28;20470;-55
2022/03/23 06:31:21;;;;;;;29.10;18.08;;;;;;;;;;5094162;27;20039;-56
2022/03/23 06:33:47;;;;;;;39.28;20.48;;;;;;;;;;5099414;27;20031;-56
2022/03/23 06:36:13;;;;;;;39.05;21.35;;;;;;;;;;5088473;28;20035;-55
2022/03/23 06:38:39;;;;;;;34.38;20.60;;;;;;;;;;5096555;28;20106;-56
2022/03/23 06:41:05;;;;;;;34.78;18.52;;;;;;;;;;5098161;28;20153;-56
2022/03/23 06:43:31;;;;;;;29.27;18.60;;;;;;;;;;5088893;28;20115;-56
2022/03/23 06:45:57;;;;;;;32.03;18.33;;;;;;;;;;5093012;28;20035;-55
2022/03/23 06:48:23;;;;;;;27.25;17.17;;;;;;;;;;5095400;28;20023;-56
2022/03/23 06:50:49;;;;;;;27.85;17.27;;;;;;;;;;5091915;28;20028;-55
2022/03/23 06:53:15;;;;;;;41.90;19.83;;;;;;;;;;5090204;28;20089;-56
2022/03/23 06:55:40;;;;;;;30.25;18.58;;;;;;;;;;5100240;28;20024;-55
2022/03/23 06:58:06;;;;;;;37.08;19.13;;;;;;;;;;5097281;28;20028;-56
2022/03/23 07:00:32;;;;;;;30.38;18.67;;;;;;;;;;5095061;28;20027;-56
2022/03/23 07:02:58;;;;;;;35.35;18.85;;;;;;;;;;5096651;28;20125;-56
2022/03/23 07:05:24;;;;;;;36.15;19.73;;;;;;;;;;5097277;28;20532;-56
2022/03/23 07:10:36;;;;;;;31.70;18.02;;;;;;;;;;5092631;28;20115;-55
2022/03/23 07:13:03;;;;;;;30.73;17.63;;;;;;;;;;5093452;28;20025;-55
2022/03/23 07:15:29;;;;;;;31.77;18.67;;;;;;;;;;5093956;28;20106;-55
2022/03/23 07:17:55;;;;;;;32.58;18.55;;;;;;;;;;5090130;28;20074;-56
2022/03/23 07:20:21;;;;;;;35.75;18.63;;;;;;;;;;5096802;28;20567;-56
2022/03/23 07:22:47;;;;;;;31.63;18.27;;;;;;;;;;5092780;28;20027;-56
2022/03/23 07:25:13;;;;;;;32.70;18.40;;;;;;;;;;5096029;28;20382;-56
2022/03/23 07:27:39;;;;;;;29.10;17.52;;;;;;;;;;5090182;28;20073;-57
2022/03/23 07:30:06;;;;;;;33.70;18.48;;;;;;;;;;5093138;28;20359;-55
2022/03/23 07:32:32;;;;;;;32.92;18.08;;;;;;;;;;5092739;28;20035;-56
2022/03/23 07:34:58;;;;;;;28.85;16.95;;;;;;;;;;5087088;28;20031;-56
2022/03/23 07:37:24;;;;;;;30.70;17.80;;;;;;;;;;5092092;28;20026;-56
2022/03/23 07:39:50;;;;;;;25.20;16.88;;;;;;;;;;5100026;28;20386;-55
2022/03/23 07:42:16;;;;;;;28.45;17.50;;;;;;;;;;5098172;28;20039;-56
2022/03/23 07:44:42;;;;;;;31.80;16.80;;;;;;;;;;5093994;28;20043;-56
2022/03/23 07:47:11;;;;;;;28.65;17.55;;;;;;;;;;5096146;28;20495;-56
2022/03/23 07:49:38;;;;;;;26.23;16.77;;;;;;;;;;5096643;28;20028;-56
2022/03/23 07:52:04;;;;;;;28.58;17.00;;;;;;;;;;5095112;28;20027;-56
2022/03/23 07:54:31;;;;;;;25.40;16.20;;;;;;;;;;5095397;28;20024;-55
2022/03/23 07:56:57;;;;;;;30.35;17.58;;;;;;;;;;5090447;28;20111;-56
2022/03/23 07:59:23;;;;;;;30.00;17.38;;;;;;;;;;5094307;28;20028;-56
2022/03/23 08:01:49;;;;;;;28.70;17.25;;;;;;;;;;5094534;28;20042;-56
2022/03/23 08:04:15;;;;;;;29.55;16.42;;;;;;;;;;5099097;28;20059;-55
2022/03/23 08:06:41;;;;;;;35.28;17.63;;;;;;;;;;5092437;28;20039;-57
2022/03/23 08:09:07;;;;;;;27.05;16.27;;;;;;;;;;5098763;28;20027;-56
2022/03/23 08:11:33;;;;;;;27.25;16.42;;;;;;;;;;5087687;27;20031;-55
2022/03/23 08:13:59;;;;;;;29.00;15.98;;;;;;;;;;5094636;28;20028;-56
2022/03/23 08:16:25;;;;;;;29.65;17.00;;;;;;;;;;5098566;28;20144;-56
2022/03/23 08:18:54;;;;;;;29.30;16.92;;;;;;;;;;5090860;28;20032;-56
2022/03/23 08:21:21;;;;;;;27.67;16.98;;;;;;;;;;5089308;28;20024;-55
2022/03/23 08:23:48;;;;;;;26.80;16.35;;;;;;;;;;5102091;28;20027;-57
2022/03/23 08:26:14;;;;;;;25.88;17.42;;;;;;;;;;5093580;28;20455;-56
2022/03/23 08:28:44;;;;;;;27.02;18.02;;;;;;;;;;5091920;28;20123;-56
2022/03/23 08:31:10;;;;;;;25.92;16.88;;;;;;;;;;5086098;28;20822;-56
2022/03/23 08:33:37;;;;;;;27.45;18.15;;;;;;;;;;5094273;28;20047;-56
2022/03/23 08:36:03;;;;;;;24.85;17.05;;;;;;;;;;5094979;28;20499;-56
2022/03/23 08:38:29;;;;;;;29.10;16.95;;;;;;;;;;5096375;28;20023;-56
2022/03/23 08:40:55;;;;;;;24.75;17.33;;;;;;;;;;5095415;28;20023;-57
2022/03/23 08:43:21;;;;;;;25.00;17.27;;;;;;;;;;5090324;28;20083;-57
2022/03/23 08:45:47;;;;;;;26.30;17.75;;;;;;;;;;5092879;28;20023;-57
2022/03/23 08:48:13;;;;;;;26.40;17.27;;;;;;;;;;5088673;28;20016;-56
2022/03/23 08:50:42;;;;;;;27.90;18.15;;;;;;;;;;5094435;28;20405;-56
2022/03/23 08:53:08;;;;;;;32.10;18.13;;;;;;;;;;5098484;28;20039;-56
2022/03/23 08:55:34;;;;;;;28.10;17.75;;;;;;;;;;5096518;28;20031;-56
2022/03/23 08:58:00;;;;;;;26.25;17.70;;;;;;;;;;5093947;28;20631;-55
2022/03/23 09:00:27;;;;;;;27.42;17.77;;;;;;;;;;5095166;28;20027;-56
2022/03/23 09:02:53;;;;;;;29.35;19.05;;;;;;;;;;5095929;28;20498;-55
2022/03/23 09:05:19;;;;;;;26.23;17.67;;;;;;;;;;5095365;27;20035;-54
2022/03/23 09:07:46;;;;;;;26.33;17.83;;;;;;;;;;5100346;27;20118;-56
2022/03/23 09:10:13;;;;;;;27.48;18.00;;;;;;;;;;5091055;28;20027;-57
2022/03/23 09:12:39;;;;;;;30.92;19.25;;;;;;;;;;5093200;28;20032;-57
2022/03/23 09:15:06;;;;;;;27.45;18.15;;;;;;;;;;5098899;28;20032;-55
2022/03/23 09:17:32;;;;;;;30.38;19.02;;;;;;;;;;5096684;28;20028;-55
2022/03/23 09:20:00;;;;;;;28.13;19.25;;;;;;;;;;5095698;28;20373;-56
2022/03/23 09:22:27;;;;;;;29.58;20.02;;;;;;;;;;5097646;28;20210;-57
2022/03/23 09:24:53;;;;;;;33.63;20.05;;;;;;;;;;5088568;28;20028;-57
2022/03/23 09:27:19;;;;;;;30.30;20.70;;;;;;;;;;5093716;28;20032;-57
2022/03/23 09:29:45;;;;;;;31.85;20.20;;;;;;;;;;5093435;28;20016;-57
2022/03/23 09:32:12;;;;;;;30.25;19.35;;;;;;;;;;5091827;28;20051;-57
2022/03/23 09:34:38;;;;;;;31.63;20.98;;;;;;;;;;5089487;28;20047;-58
2022/03/23 09:39:50;;;;;;;28.55;19.88;;;;;;;;;;5095226;28;20070;-56
2022/03/23 09:42:18;;;;;;;29.90;20.38;;;;;;;;;;5088644;28;20053;-58
2022/03/23 09:44:45;;;;;;;33.92;20.55;;;;;;;;;;5098211;28;20020;-51
2022/03/23 09:47:11;;;;;;;29.00;19.90;;;;;;;;;;5096866;28;20032;-56
2022/03/23 09:49:38;;;;;;;33.10;20.35;;;;;;;;;;5098597;28;20099;-57
2022/03/23 09:52:05;;;;;;;34.38;20.77;;;;;;;;;;5098875;28;20433;-59
2022/03/23 09:54:31;;;;;;;35.20;20.73;;;;;;;;;;5096290;28;20034;-54
2022/03/23 09:56:57;;;;;;;31.27;21.70;;;;;;;;;;5096389;28;20058;-54
2022/03/23 09:59:23;;;;;;;31.45;22.13;;;;;;;;;;5091368;28;20460;-56
2022/03/23 10:01:49;;;;;;;33.72;21.17;;;;;;;;;;5096742;28;20063;-56
2022/03/23 10:04:48;;;;;;;33.75;21.55;;;;;;;;;;5099022;28;20175;-57
2022/03/23 10:07:23;;;;;;;32.78;19.77;;;;;;;;;;5095873;28;20036;-56
2022/03/23 10:09:49;;;;;;;33.28;20.45;;;;;;;;;;5090277;28;20667;-57
2022/03/23 10:12:44;;;;;;;30.85;20.50;;;;;;;;;;5094554;28;20149;-57
2022/03/23 10:15:29;;;;;;;30.13;21.27;;;;;;;;;;5084133;28;20101;-54
2022/03/23 10:18:13;;;;;;;30.27;21.27;;;;;;;;;;5088387;28;20053;-56
2022/03/23 10:20:39;;;;;;;30.85;20.15;;;;;;;;;;5094501;28;20030;-57
2022/03/23 10:23:06;;;;;;;33.80;22.38;;;;;;;;;;5096643;28;20023;-57
2022/03/23 10:25:32;;;;;;;35.65;21.52;;;;;;;;;;5095728;28;20069;-56
2022/03/23 10:27:58;;;;;;;30.80;21.25;;;;;;;;;;5095577;28;20456;-55
2022/03/23 10:30:34;;;;;;;31.35;20.52;;;;;;;;;;5096409;28;20043;-56
2022/03/23 10:33:00;;;;;;;36.35;21.63;;;;;;;;;;5085521;28;20281;-56
2022/03/23 10:35:35;;;;;;;34.70;22.67;;;;;;;;;;5085442;28;20043;-56
2022/03/23 10:38:10;;;;;;;37.13;22.13;;;;;;;;;;5092825;28;20035;-56
2022/03/23 10:40:35;;;;;;;33.80;22.05;;;;;;;;;;5093964;28;20031;-56
2022/03/23 10:43:01;;;;;;;40.53;22.08;;;;;;;;;;5095515;28;20036;-55
2022/03/23 10:45:31;;;;;;;34.33;22.33;;;;;;;;;;5095969;28;20035;-55
2022/03/23 10:48:07;;;;;;;35.78;21.98;;;;;;;;;;5092978;28;20019;-57
2022/03/23 10:50:33;;;;;;;33.10;22.10;;;;;;;;;;5093898;28;20129;-57
2022/03/23 10:53:01;;;;;;;34.15;22.83;;;;;;;;;;5098488;28;20424;-56
2022/03/23 10:55:29;;;;;;;30.77;21.08;;;;;;;;;;5100438;28;20024;-55
2022/03/23 10:58:01;;;;;;;32.17;21.73;;;;;;;;;;5107402;27;20048;-56
2022/03/23 11:00:32;;;;;;;29.55;20.35;;;;;;;;;;5097632;28;20028;-56
2022/03/23 11:02:59;;;;;;;31.45;21.58;;;;;;;;;;5096221;28;20028;-56
2022/03/23 11:05:34;;;;;;;29.88;21.30;;;;;;;;;;5102825;28;20102;-56
2022/03/23 11:08:14;;;;;;;30.80;20.58;;;;;;;;;;5102835;28;20115;-55
2022/03/23 11:16:35;;;;;;;32.80;22.90;;;;;;;;;;5097709;28;20035;-55
2022/03/23 11:19:01;;;;;;;33.47;23.00;;;;;;;;;;5099827;28;20011;-56
2022/03/23 11:21:28;;;;;;;30.50;21.92;;;;;;;;;;5092138;28;20687;-55
2022/03/23 11:23:54;;;;;;;37.92;24.20;;;;;;;;;;5090684;28;20106;-56
2022/03/23 11:26:20;;;;;;;36.03;22.67;;;;;;;;;;5095498;28;20027;-56
2022/03/23 11:28:46;;;;;;;32.47;22.17;;;;;;;;;;5096355;28;20035;-56
2022/03/23 11:31:15;;;;;;;35.45;22.92;;;;;;;;;;5094359;28;20031;-55
2022/03/23 11:33:42;;;;;;;33.55;22.75;;;;;;;;;;5098150;28;20645;-56
2022/03/23 11:36:11;;;;;;;33.65;23.30;;;;;;;;;;5090855;28;20032;-56
2022/03/23 11:38:37;;;;;;;38.75;22.88;;;;;;;;;;5101141;28;20135;-56
2022/03/23 11:41:04;;;;;;;32.17;22.38;;;;;;;;;;5100038;28;20047;-55
2022/03/23 11:43:34;;;;;;;36.53;23.15;;;;;;;;;;5093116;28;20178;-54
2022/03/23 11:46:01;;;;;;;30.83;22.25;;;;;;;;;;5093059;28;20162;-56
2022/03/23 11:48:46;;;;;;;36.05;23.50;;;;;;;;;;5100662;28;20092;-55
2022/03/23 11:51:16;;;;;;;34.78;23.13;;;;;;;;;;5094526;28;20088;-55
2022/03/23 11:53:54;;;;;;;36.80;23.73;;;;;;;;;;5095226;28;20024;-56
2022/03/23 11:56:26;;;;;;;32.75;22.45;;;;;;;;;;5089656;28;20111;-55
2022/03/23 11:58:52;;;;;;;33.10;23.05;;;;;;;;;;5087920;28;20096;-56
2022/03/23 12:01:19;;;;;;;32.55;21.38;;;;;;;;;;5097896;28;20031;-55
2022/03/23 12:03:47;;;;;;;30.77;21.23;;;;;;;;;;5098844;28;20037;-55
2022/03/23 12:06:14;;;;;;;28.73;20.55;;;;;;;;;;5099704;28;20106;-55
2022/03/23 12:08:50;;;;;;;28.73;20.23;;;;;;;;;;5100079;28;20110;-56
2022/03/23 12:11:34;;;;;;;29.30;18.58;;;;;;;;;;5098776;28;20132;-55
2022/03/23 12:14:01;;;;;;;28.33;18.95;;;;;;;;;;5099932;28;20450;-54
2022/03/23 12:16:46;;;;;;;26.77;18.58;;;;;;;;;;5098389;28;20266;-56
2022/03/23 12:19:16;;;;;;;27.80;19.00;;;;;;;;;;5087612;28;20103;-55
2022/03/23 12:22:01;;;;;;;28.48;19.05;;;;;;;;;;5097096;28;20120;-54
2022/03/23 12:24:42;;;;;;;25.00;17.77;;;;;;;;;;5099351;28;20055;-55
2022/03/23 12:27:13;;;;;;;30.65;19.50;;;;;;;;;;5093770;28;20032;-55
2022/03/23 12:29:44;;;;;;;30.40;20.00;;;;;;;;;;5098104;28;21083;-55
2022/03/23 12:32:12;;;;;;;28.67;18.90;;;;;;;;;;5086090;28;20031;-55
2022/03/23 12:34:39;;;;;;;28.20;19.35;;;;;;;;;;5093388;28;20201;-55
2022/03/23 12:37:16;;;;;;;28.25;19.00;;;;;;;;;;5095401;28;20555;-55
2022/03/23 12:39:43;;;;;;;25.08;18.58;;;;;;;;;;5099357;28;20443;-56
2022/03/23 12:42:12;;;;;;;28.00;18.15;;;;;;;;;;5087025;28;20024;-55
2022/03/23 12:44:40;;;;;;;26.17;17.60;;;;;;;;;;5092032;28;20024;-56
2022/03/23 12:47:11;;;;;;;21.80;16.25;;;;;;;;;;5095010;28;20028;-55
2022/03/23 12:58:01;;;;;;;36.22;24.80;;;;;;;;;;5094143;28;20133;-55
2022/03/23 13:00:31;;;;;;;26.25;18.77;;;;;;;;;;5088462;28;20062;-57
2022/03/23 13:03:03;;;;;;;30.45;19.40;;;;;;;;;;5089518;28;20107;-57
2022/03/23 13:05:31;;;;;;;27.80;20.55;;;;;;;;;;5092584;28;20465;-57
2022/03/23 13:07:57;;;;;;;27.73;19.52;;;;;;;;;;5088362;28;20047;-58
2022/03/23 13:10:26;;;;;;;27.30;19.42;;;;;;;;;;5097644;28;20020;-56
2022/03/23 13:13:05;;;;;;;31.48;19.58;;;;;;;;;;5090231;28;20185;-58
2022/03/23 13:15:31;;;;;;;28.00;19.48;;;;;;;;;;5088801;28;20024;-58
2022/03/23 13:17:57;;;;;;;32.30;19.15;;;;;;;;;;5086881;28;20020;-57
2022/03/23 13:20:26;;;;;;;26.55;18.20;;;;;;;;;;5090148;28;20016;-57
2022/03/23 13:22:53;;;;;;;28.05;19.58;;;;;;;;;;5092192;28;20108;-56
2022/03/23 13:25:19;;;;;;;27.67;18.98;;;;;;;;;;5086242;28;20055;-57
2022/03/23 13:27:46;;;;;;;28.42;19.90;;;;;;;;;;5085529;28;20597;-57
2022/03/23 13:30:13;;;;;;;27.80;19.35;;;;;;;;;;5092246;28;20021;-56
2022/03/23 13:32:40;;;;;;;28.63;19.60;;;;;;;;;;5094257;28;20111;-55
2022/03/23 13:35:14;;;;;;;29.30;19.38;;;;;;;;;;5088796;28;20028;-55
2022/03/23 13:37:55;;;;;;;29.02;19.65;;;;;;;;;;5096006;28;20022;-56
2022/03/23 13:40:21;;;;;;;26.13;19.17;;;;;;;;;;5091305;28;20070;-56
2022/03/23 13:45:32;;;;;;;32.78;20.60;;;;;;;;;;5093679;28;20087;-55
2022/03/23 13:47:58;;;;;;;33.97;21.30;;;;;;;;;;5095894;28;20020;-56
2022/03/23 13:50:26;;;;;;;32.45;19.75;;;;;;;;;;5086058;28;20027;-54
2022/03/23 13:52:52;;;;;;;31.10;20.65;;;;;;;;;;5092232;28;20024;-55
2022/03/23 13:55:18;;;;;;;29.85;20.38;;;;;;;;;;5087973;28;20028;-56
2022/03/23 13:57:47;;;;;;;31.55;21.52;;;;;;;;;;5092046;28;20556;-54
2022/03/23 14:00:24;;;;;;;32.53;21.30;;;;;;;;;;5090598;28;20035;-54
2022/03/23 14:02:51;;;;;;;37.90;21.77;;;;;;;;;;5088538;28;20055;-56
2022/03/23 14:05:20;;;;;;;31.50;21.17;;;;;;;;;;5093077;28;20383;-56
2022/03/23 14:07:46;;;;;;;32.88;22.20;;;;;;;;;;5089967;28;20392;-56
2022/03/23 14:10:12;;;;;;;31.17;20.50;;;;;;;;;;5094035;28;20051;-56
2022/03/23 14:12:39;;;;;;;32.20;21.85;;;;;;;;;;5088233;28;20062;-55
2022/03/23 14:15:05;;;;;;;35.85;24.00;;;;;;;;;;5094523;28;20020;-56
2022/03/23 14:17:34;;;;;;;30.70;22.50;;;;;;;;;;5087807;28;20112;-55
2022/03/23 14:20:04;;;;;;;33.83;22.27;;;;;;;;;;5092594;28;20024;-55
2022/03/23 14:22:30;;;;;;;34.03;22.58;;;;;;;;;;5091075;28;20414;-55
2022/03/23 14:24:58;;;;;;;34.08;23.65;;;;;;;;;;5096617;28;20052;-55
2022/03/23 14:27:28;;;;;;;39.45;24.85;;;;;;;;;;5097660;28;20034;-55
2022/03/23 14:29:57;;;;;;;35.03;25.23;;;;;;;;;;5100877;28;20016;-55
2022/03/23 14:32:30;;;;;;;39.50;25.17;;;;;;;;;;5097289;28;20111;-55
2022/03/23 14:34:56;;;;;;;43.58;26.27;;;;;;;;;;5096506;28;20035;-56
2022/03/23 14:37:32;;;;;;;36.20;24.42;;;;;;;;;;5098609;28;20019;-55
2022/03/23 14:40:00;;;;;;;34.72;25.15;;;;;;;;;;5098171;28;20031;-55
2022/03/23 14:42:31;;;;;;;37.97;26.00;;;;;;;;;;5097598;28;20020;-55
2022/03/23 14:44:59;;;;;;;37.50;23.75;;;;;;;;;;5096576;28;20130;-55
2022/03/23 14:47:45;;;;;;;34.72;24.17;;;;;;;;;;5093419;28;20047;-55
2022/03/23 14:50:11;;;;;;;34.75;24.45;;;;;;;;;;5097270;27;20349;-56
2022/03/23 14:52:37;;;;;;;35.20;24.73;;;;;;;;;;5100863;28;20036;-56